<?xml version="1.0" encoding="UTF-8"?>
<gpx xmlns="http://www.topografix.com/GPX/1/1" xmlns:xsi="http://www.w3.org/2001/XMLSchema-instance" version="1.1" xsi:schemaLocation="http://www.topografix.com/GPX/1/1 http://www.topografix.com/GPX/1/1/gpx.xsd">
  <metadata>
    <name>Williamstown Badgers Riverwinds Triathlon 2022</name>
  </metadata>
  <trk>
    <name>Williamstown Badgers Riverwinds Triathlon 2022</name>
    <trkseg>
      <trkpt lat="39.858407" lon="-75.204558">
        <ele>2.000002</ele>
        <time>2024-04-28T07:34:00.000Z</time>
      </trkpt>
      <trkpt lat="39.858399" lon="-75.204553">
        <ele>1.999992</ele>
        <time>2024-04-28T07:34:00.000Z</time>
      </trkpt>
      <trkpt lat="39.857666" lon="-75.20411">
        <ele>2.000002</ele>
        <time>2024-04-28T07:34:09.000Z</time>
      </trkpt>
      <trkpt lat="39.855358" lon="-75.202539">
        <ele>2.000007</ele>
        <time>2024-04-28T07:34:38.000Z</time>
      </trkpt>
      <trkpt lat="39.851781" lon="-75.200159">
        <ele>2.104526</ele>
        <time>2024-04-28T07:35:23.000Z</time>
      </trkpt>
      <trkpt lat="39.85135" lon="-75.199817">
        <ele>2.149548</ele>
        <time>2024-04-28T07:35:29.000Z</time>
      </trkpt>
      <trkpt lat="39.850563" lon="-75.198984">
        <ele>2.392972</ele>
        <time>2024-04-28T07:35:40.000Z</time>
      </trkpt>
      <trkpt lat="39.850442" lon="-75.198779">
        <ele>2.446247</ele>
        <time>2024-04-28T07:35:42.000Z</time>
      </trkpt>
      <trkpt lat="39.850332" lon="-75.198501">
        <ele>2.510925</ele>
        <time>2024-04-28T07:35:45.000Z</time>
      </trkpt>
      <trkpt lat="39.850311" lon="-75.198075">
        <ele>2.598702</ele>
        <time>2024-04-28T07:35:49.000Z</time>
      </trkpt>
      <trkpt lat="39.850386" lon="-75.197757">
        <ele>2.65506</ele>
        <time>2024-04-28T07:35:52.000Z</time>
      </trkpt>
      <trkpt lat="39.850956" lon="-75.195983">
        <ele>2.888103</ele>
        <time>2024-04-28T07:36:08.000Z</time>
      </trkpt>
      <trkpt lat="39.850988" lon="-75.195374">
        <ele>2.904015</ele>
        <time>2024-04-28T07:36:13.000Z</time>
      </trkpt>
      <trkpt lat="39.850977" lon="-75.195196">
        <ele>2.892106</ele>
        <time>2024-04-28T07:36:15.000Z</time>
      </trkpt>
      <trkpt lat="39.850967" lon="-75.194996">
        <ele>2.87793</ele>
        <time>2024-04-28T07:36:17.000Z</time>
      </trkpt>
      <trkpt lat="39.850944" lon="-75.194691">
        <ele>2.858658</ele>
        <time>2024-04-28T07:36:20.000Z</time>
      </trkpt>
      <trkpt lat="39.850837" lon="-75.193009">
        <ele>2.78015</ele>
        <time>2024-04-28T07:36:34.000Z</time>
      </trkpt>
      <trkpt lat="39.850634" lon="-75.190238">
        <ele>3.036702</ele>
        <time>2024-04-28T07:36:58.000Z</time>
      </trkpt>
      <trkpt lat="39.850532" lon="-75.189672">
        <ele>3.171134</ele>
        <time>2024-04-28T07:37:03.000Z</time>
      </trkpt>
      <trkpt lat="39.850139" lon="-75.188523">
        <ele>3.464254</ele>
        <time>2024-04-28T07:37:14.000Z</time>
      </trkpt>
      <trkpt lat="39.849601" lon="-75.188815">
        <ele>3.628299</ele>
        <time>2024-04-28T07:37:20.000Z</time>
      </trkpt>
      <trkpt lat="39.849298" lon="-75.18898">
        <ele>3.723525</ele>
        <time>2024-04-28T07:37:24.000Z</time>
      </trkpt>
      <trkpt lat="39.848366" lon="-75.189482">
        <ele>3.953525</ele>
        <time>2024-04-28T07:37:35.000Z</time>
      </trkpt>
      <trkpt lat="39.848066" lon="-75.189676">
        <ele>3.994866</ele>
        <time>2024-04-28T07:37:39.000Z</time>
      </trkpt>
      <trkpt lat="39.847422" lon="-75.190019">
        <ele>4.07747</ele>
        <time>2024-04-28T07:37:47.000Z</time>
      </trkpt>
      <trkpt lat="39.846679" lon="-75.190444">
        <ele>4.26589</ele>
        <time>2024-04-28T07:37:56.000Z</time>
      </trkpt>
      <trkpt lat="39.846126" lon="-75.19075">
        <ele>4.488494</ele>
        <time>2024-04-28T07:38:03.000Z</time>
      </trkpt>
      <trkpt lat="39.845098" lon="-75.191303">
        <ele>4.923081</ele>
        <time>2024-04-28T07:38:15.000Z</time>
      </trkpt>
      <trkpt lat="39.844385" lon="-75.191704">
        <ele>5.279619</ele>
        <time>2024-04-28T07:38:24.000Z</time>
      </trkpt>
      <trkpt lat="39.844218" lon="-75.191783">
        <ele>5.356594</ele>
        <time>2024-04-28T07:38:26.000Z</time>
      </trkpt>
      <trkpt lat="39.843823" lon="-75.192006">
        <ele>5.560793</ele>
        <time>2024-04-28T07:38:31.000Z</time>
      </trkpt>
      <trkpt lat="39.843609" lon="-75.192646">
        <ele>5.654284</ele>
        <time>2024-04-28T07:38:37.000Z</time>
      </trkpt>
      <trkpt lat="39.843419" lon="-75.193298">
        <ele>5.699982</ele>
        <time>2024-04-28T07:38:43.000Z</time>
      </trkpt>
      <trkpt lat="39.843211" lon="-75.193924">
        <ele>5.744773</ele>
        <time>2024-04-28T07:38:49.000Z</time>
      </trkpt>
      <trkpt lat="39.843088" lon="-75.194325">
        <ele>5.773879</ele>
        <time>2024-04-28T07:38:53.000Z</time>
      </trkpt>
      <trkpt lat="39.842705" lon="-75.195559">
        <ele>5.382507</ele>
        <time>2024-04-28T07:39:04.000Z</time>
      </trkpt>
      <trkpt lat="39.842655" lon="-75.195708">
        <ele>5.336596</ele>
        <time>2024-04-28T07:39:05.000Z</time>
      </trkpt>
      <trkpt lat="39.842486" lon="-75.196287">
        <ele>5.152252</ele>
        <time>2024-04-28T07:39:10.000Z</time>
      </trkpt>
      <trkpt lat="39.842252" lon="-75.196972">
        <ele>4.848843</ele>
        <time>2024-04-28T07:39:16.000Z</time>
      </trkpt>
      <trkpt lat="39.842002" lon="-75.197782">
        <ele>4.430652</ele>
        <time>2024-04-28T07:39:23.000Z</time>
      </trkpt>
      <trkpt lat="39.841053" lon="-75.200814">
        <ele>3.370682</ele>
        <time>2024-04-28T07:39:51.000Z</time>
      </trkpt>
      <trkpt lat="39.840908" lon="-75.201216">
        <ele>3.439046</ele>
        <time>2024-04-28T07:39:55.000Z</time>
      </trkpt>
      <trkpt lat="39.840813" lon="-75.20156">
        <ele>3.502547</ele>
        <time>2024-04-28T07:39:58.000Z</time>
      </trkpt>
      <trkpt lat="39.840775" lon="-75.20169">
        <ele>3.527621</ele>
        <time>2024-04-28T07:39:59.000Z</time>
      </trkpt>
      <trkpt lat="39.84068" lon="-75.201963">
        <ele>3.580143</ele>
        <time>2024-04-28T07:40:02.000Z</time>
      </trkpt>
      <trkpt lat="39.840467" lon="-75.202651">
        <ele>3.709067</ele>
        <time>2024-04-28T07:40:08.000Z</time>
      </trkpt>
      <trkpt lat="39.84024" lon="-75.203428">
        <ele>3.708091</ele>
        <time>2024-04-28T07:40:15.000Z</time>
      </trkpt>
      <trkpt lat="39.839729" lon="-75.204981">
        <ele>3.443191</ele>
        <time>2024-04-28T07:40:29.000Z</time>
      </trkpt>
      <trkpt lat="39.839235" lon="-75.206482">
        <ele>2.892775</ele>
        <time>2024-04-28T07:40:43.000Z</time>
      </trkpt>
      <trkpt lat="39.838681" lon="-75.208232">
        <ele>2.318389</ele>
        <time>2024-04-28T07:40:59.000Z</time>
      </trkpt>
      <trkpt lat="39.838162" lon="-75.209839">
        <ele>1.924367</ele>
        <time>2024-04-28T07:41:14.000Z</time>
      </trkpt>
      <trkpt lat="39.837435" lon="-75.212156">
        <ele>1.693257</ele>
        <time>2024-04-28T07:41:35.000Z</time>
      </trkpt>
      <trkpt lat="39.837438" lon="-75.212165">
        <ele>1.693338</ele>
        <time>2024-04-28T07:41:35.000Z</time>
      </trkpt>
      <trkpt lat="39.837403" lon="-75.212274">
        <ele>1.695832</ele>
        <time>2024-04-28T07:41:36.000Z</time>
      </trkpt>
      <trkpt lat="39.836672" lon="-75.214563">
        <ele>1.795665</ele>
        <time>2024-04-28T07:41:57.000Z</time>
      </trkpt>
      <trkpt lat="39.83588" lon="-75.21711">
        <ele>1.958768</ele>
        <time>2024-04-28T07:42:20.000Z</time>
      </trkpt>
      <trkpt lat="39.835276" lon="-75.218931">
        <ele>2.063589</ele>
        <time>2024-04-28T07:42:37.000Z</time>
      </trkpt>
      <trkpt lat="39.83452" lon="-75.221348">
        <ele>2.420379</ele>
        <time>2024-04-28T07:42:59.000Z</time>
      </trkpt>
      <trkpt lat="39.834054" lon="-75.222771">
        <ele>2.739323</ele>
        <time>2024-04-28T07:43:12.000Z</time>
      </trkpt>
      <trkpt lat="39.833863" lon="-75.223371">
        <ele>2.838228</ele>
        <time>2024-04-28T07:43:18.000Z</time>
      </trkpt>
      <trkpt lat="39.834748" lon="-75.223797">
        <ele>3.020864</ele>
        <time>2024-04-28T07:43:28.000Z</time>
      </trkpt>
      <trkpt lat="39.83501" lon="-75.223852">
        <ele>3.000489</ele>
        <time>2024-04-28T07:43:31.000Z</time>
      </trkpt>
      <trkpt lat="39.835794" lon="-75.223834">
        <ele>2.802087</ele>
        <time>2024-04-28T07:43:40.000Z</time>
      </trkpt>
      <trkpt lat="39.837019" lon="-75.224436">
        <ele>2.455791</ele>
        <time>2024-04-28T07:43:55.000Z</time>
      </trkpt>
      <trkpt lat="39.837745" lon="-75.224814">
        <ele>2.242843</ele>
        <time>2024-04-28T07:44:04.000Z</time>
      </trkpt>
      <trkpt lat="39.837971" lon="-75.224925">
        <ele>2.181767</ele>
        <time>2024-04-28T07:44:07.000Z</time>
      </trkpt>
      <trkpt lat="39.838034" lon="-75.224959">
        <ele>2.159143</ele>
        <time>2024-04-28T07:44:08.000Z</time>
      </trkpt>
      <trkpt lat="39.838286" lon="-75.225085">
        <ele>2.091517</ele>
        <time>2024-04-28T07:44:11.000Z</time>
      </trkpt>
      <trkpt lat="39.838559" lon="-75.225203">
        <ele>2.076936</ele>
        <time>2024-04-28T07:44:14.000Z</time>
      </trkpt>
      <trkpt lat="39.839013" lon="-75.225424">
        <ele>2.05187</ele>
        <time>2024-04-28T07:44:19.000Z</time>
      </trkpt>
      <trkpt lat="39.839679" lon="-75.225736">
        <ele>2.015924</ele>
        <time>2024-04-28T07:44:27.000Z</time>
      </trkpt>
      <trkpt lat="39.839861" lon="-75.225817">
        <ele>2.005836</ele>
        <time>2024-04-28T07:44:29.000Z</time>
      </trkpt>
      <trkpt lat="39.839676" lon="-75.225727">
        <ele>2.006084</ele>
        <time>2024-04-28T07:44:31.000Z</time>
      </trkpt>
      <trkpt lat="39.83901" lon="-75.225421">
        <ele>2.05775</ele>
        <time>2024-04-28T07:44:39.000Z</time>
      </trkpt>
      <trkpt lat="39.838557" lon="-75.2252">
        <ele>2.093751</ele>
        <time>2024-04-28T07:44:44.000Z</time>
      </trkpt>
      <trkpt lat="39.838278" lon="-75.225083">
        <ele>2.11471</ele>
        <time>2024-04-28T07:44:47.000Z</time>
      </trkpt>
      <trkpt lat="39.83804" lon="-75.224972">
        <ele>2.137827</ele>
        <time>2024-04-28T07:44:50.000Z</time>
      </trkpt>
      <trkpt lat="39.837958" lon="-75.224934">
        <ele>2.16227</ele>
        <time>2024-04-28T07:44:51.000Z</time>
      </trkpt>
      <trkpt lat="39.837752" lon="-75.224814">
        <ele>2.228235</ele>
        <time>2024-04-28T07:44:54.000Z</time>
      </trkpt>
      <trkpt lat="39.837035" lon="-75.224433">
        <ele>2.45821</ele>
        <time>2024-04-28T07:45:03.000Z</time>
      </trkpt>
      <trkpt lat="39.835786" lon="-75.223837">
        <ele>2.797015</ele>
        <time>2024-04-28T07:45:18.000Z</time>
      </trkpt>
      <trkpt lat="39.835026" lon="-75.22384">
        <ele>2.964865</ele>
        <time>2024-04-28T07:45:26.000Z</time>
      </trkpt>
      <trkpt lat="39.834754" lon="-75.223789">
        <ele>3.024309</ele>
        <time>2024-04-28T07:45:29.000Z</time>
      </trkpt>
      <trkpt lat="39.833872" lon="-75.223373">
        <ele>2.845906</ele>
        <time>2024-04-28T07:45:39.000Z</time>
      </trkpt>
      <trkpt lat="39.834053" lon="-75.222779">
        <ele>2.719322</ele>
        <time>2024-04-28T07:45:44.000Z</time>
      </trkpt>
      <trkpt lat="39.834511" lon="-75.221339">
        <ele>2.418385</ele>
        <time>2024-04-28T07:45:57.000Z</time>
      </trkpt>
      <trkpt lat="39.835292" lon="-75.218924">
        <ele>2.066218</ele>
        <time>2024-04-28T07:46:19.000Z</time>
      </trkpt>
      <trkpt lat="39.835881" lon="-75.217096">
        <ele>1.959707</ele>
        <time>2024-04-28T07:46:36.000Z</time>
      </trkpt>
      <trkpt lat="39.836663" lon="-75.214558">
        <ele>1.771808</ele>
        <time>2024-04-28T07:46:59.000Z</time>
      </trkpt>
      <trkpt lat="39.837408" lon="-75.212274">
        <ele>1.630939</ele>
        <time>2024-04-28T07:47:20.000Z</time>
      </trkpt>
      <trkpt lat="39.837437" lon="-75.21217">
        <ele>1.628124</ele>
        <time>2024-04-28T07:47:21.000Z</time>
      </trkpt>
      <trkpt lat="39.838156" lon="-75.209836">
        <ele>1.857448</ele>
        <time>2024-04-28T07:47:42.000Z</time>
      </trkpt>
      <trkpt lat="39.838684" lon="-75.208217">
        <ele>2.287176</ele>
        <time>2024-04-28T07:47:57.000Z</time>
      </trkpt>
      <trkpt lat="39.839245" lon="-75.206483">
        <ele>2.89117</ele>
        <time>2024-04-28T07:48:13.000Z</time>
      </trkpt>
      <trkpt lat="39.839712" lon="-75.204987">
        <ele>3.475696</ele>
        <time>2024-04-28T07:48:27.000Z</time>
      </trkpt>
      <trkpt lat="39.840232" lon="-75.203429">
        <ele>3.65878</ele>
        <time>2024-04-28T07:48:42.000Z</time>
      </trkpt>
      <trkpt lat="39.840463" lon="-75.202637">
        <ele>3.714206</ele>
        <time>2024-04-28T07:48:49.000Z</time>
      </trkpt>
      <trkpt lat="39.840673" lon="-75.20196">
        <ele>3.60902</ele>
        <time>2024-04-28T07:48:55.000Z</time>
      </trkpt>
      <trkpt lat="39.84076" lon="-75.201697">
        <ele>3.566147</ele>
        <time>2024-04-28T07:48:57.000Z</time>
      </trkpt>
      <trkpt lat="39.840813" lon="-75.201551">
        <ele>3.545695</ele>
        <time>2024-04-28T07:48:58.000Z</time>
      </trkpt>
      <trkpt lat="39.84092" lon="-75.201227">
        <ele>3.493881</ele>
        <time>2024-04-28T07:49:01.000Z</time>
      </trkpt>
      <trkpt lat="39.84104" lon="-75.20082">
        <ele>3.43065</ele>
        <time>2024-04-28T07:49:05.000Z</time>
      </trkpt>
      <trkpt lat="39.841996" lon="-75.197795">
        <ele>4.410614</ele>
        <time>2024-04-28T07:49:33.000Z</time>
      </trkpt>
      <trkpt lat="39.842256" lon="-75.196965">
        <ele>4.834224</ele>
        <time>2024-04-28T07:49:41.000Z</time>
      </trkpt>
      <trkpt lat="39.842484" lon="-75.196281">
        <ele>5.183315</ele>
        <time>2024-04-28T07:49:47.000Z</time>
      </trkpt>
      <trkpt lat="39.842651" lon="-75.195703">
        <ele>5.355737</ele>
        <time>2024-04-28T07:49:52.000Z</time>
      </trkpt>
      <trkpt lat="39.842694" lon="-75.195556">
        <ele>5.395363</ele>
        <time>2024-04-28T07:49:53.000Z</time>
      </trkpt>
      <trkpt lat="39.84308" lon="-75.194342">
        <ele>5.733545</ele>
        <time>2024-04-28T07:50:04.000Z</time>
      </trkpt>
      <trkpt lat="39.843211" lon="-75.193917">
        <ele>5.792246</ele>
        <time>2024-04-28T07:50:08.000Z</time>
      </trkpt>
      <trkpt lat="39.84342" lon="-75.193294">
        <ele>5.714336</ele>
        <time>2024-04-28T07:50:14.000Z</time>
      </trkpt>
      <trkpt lat="39.843616" lon="-75.192654">
        <ele>5.634829</ele>
        <time>2024-04-28T07:50:20.000Z</time>
      </trkpt>
      <trkpt lat="39.843817" lon="-75.192017">
        <ele>5.556134</ele>
        <time>2024-04-28T07:50:26.000Z</time>
      </trkpt>
      <trkpt lat="39.844219" lon="-75.191788">
        <ele>5.376333</ele>
        <time>2024-04-28T07:50:31.000Z</time>
      </trkpt>
      <trkpt lat="39.844376" lon="-75.191708">
        <ele>5.296206</ele>
        <time>2024-04-28T07:50:33.000Z</time>
      </trkpt>
      <trkpt lat="39.845104" lon="-75.191313">
        <ele>4.92504</ele>
        <time>2024-04-28T07:50:42.000Z</time>
      </trkpt>
      <trkpt lat="39.846122" lon="-75.190739">
        <ele>4.483403</ele>
        <time>2024-04-28T07:50:54.000Z</time>
      </trkpt>
      <trkpt lat="39.846679" lon="-75.190446">
        <ele>4.284179</ele>
        <time>2024-04-28T07:51:01.000Z</time>
      </trkpt>
      <trkpt lat="39.847426" lon="-75.190018">
        <ele>4.06409</ele>
        <time>2024-04-28T07:51:10.000Z</time>
      </trkpt>
      <trkpt lat="39.848066" lon="-75.189668">
        <ele>3.989369</ele>
        <time>2024-04-28T07:51:18.000Z</time>
      </trkpt>
      <trkpt lat="39.84837" lon="-75.189481">
        <ele>3.951954</ele>
        <time>2024-04-28T07:51:22.000Z</time>
      </trkpt>
      <trkpt lat="39.849288" lon="-75.188986">
        <ele>3.7866</ele>
        <time>2024-04-28T07:51:33.000Z</time>
      </trkpt>
      <trkpt lat="39.849601" lon="-75.18882">
        <ele>3.706837</ele>
        <time>2024-04-28T07:51:37.000Z</time>
      </trkpt>
      <trkpt lat="39.850139" lon="-75.188527">
        <ele>3.569417</ele>
        <time>2024-04-28T07:51:43.000Z</time>
      </trkpt>
      <trkpt lat="39.8516" lon="-75.187709">
        <ele>3.134519</ele>
        <time>2024-04-28T07:52:01.000Z</time>
      </trkpt>
      <trkpt lat="39.852429" lon="-75.187254">
        <ele>2.889861</ele>
        <time>2024-04-28T07:52:11.000Z</time>
      </trkpt>
      <trkpt lat="39.853077" lon="-75.186888">
        <ele>2.717076</ele>
        <time>2024-04-28T07:52:19.000Z</time>
      </trkpt>
      <trkpt lat="39.855987" lon="-75.185288">
        <ele>2.016134</ele>
        <time>2024-04-28T07:52:54.000Z</time>
      </trkpt>
      <trkpt lat="39.857248" lon="-75.18435">
        <ele>1.78171</ele>
        <time>2024-04-28T07:53:10.000Z</time>
      </trkpt>
      <trkpt lat="39.857663" lon="-75.18411">
        <ele>1.810003</ele>
        <time>2024-04-28T07:53:15.000Z</time>
      </trkpt>
      <trkpt lat="39.858156" lon="-75.183824">
        <ele>1.844566</ele>
        <time>2024-04-28T07:53:21.000Z</time>
      </trkpt>
      <trkpt lat="39.859528" lon="-75.183145">
        <ele>1.973108</ele>
        <time>2024-04-28T07:53:37.000Z</time>
      </trkpt>
      <trkpt lat="39.860378" lon="-75.182786">
        <ele>2.06735</ele>
        <time>2024-04-28T07:53:47.000Z</time>
      </trkpt>
      <trkpt lat="39.860791" lon="-75.1826">
        <ele>2.069454</ele>
        <time>2024-04-28T07:53:52.000Z</time>
      </trkpt>
      <trkpt lat="39.862478" lon="-75.181696">
        <ele>2.170025</ele>
        <time>2024-04-28T07:54:12.000Z</time>
      </trkpt>
      <trkpt lat="39.863188" lon="-75.181291">
        <ele>2.397661</ele>
        <time>2024-04-28T07:54:21.000Z</time>
      </trkpt>
      <trkpt lat="39.863824" lon="-75.180938">
        <ele>2.616999</ele>
        <time>2024-04-28T07:54:29.000Z</time>
      </trkpt>
      <trkpt lat="39.864458" lon="-75.180578">
        <ele>2.985021</ele>
        <time>2024-04-28T07:54:37.000Z</time>
      </trkpt>
      <trkpt lat="39.864463" lon="-75.180577">
        <ele>2.989133</ele>
        <time>2024-04-28T07:54:37.000Z</time>
      </trkpt>
      <trkpt lat="39.865092" lon="-75.18022">
        <ele>3.358977</ele>
        <time>2024-04-28T07:54:45.000Z</time>
      </trkpt>
      <trkpt lat="39.865096" lon="-75.180226">
        <ele>3.358985</ele>
        <time>2024-04-28T07:54:45.000Z</time>
      </trkpt>
      <trkpt lat="39.8651" lon="-75.180221">
        <ele>3.358975</ele>
        <time>2024-04-28T07:54:45.000Z</time>
      </trkpt>
      <trkpt lat="39.865359" lon="-75.181063">
        <ele>3.595757</ele>
        <time>2024-04-28T07:54:53.000Z</time>
      </trkpt>
      <trkpt lat="39.865608" lon="-75.181896">
        <ele>3.698719</ele>
        <time>2024-04-28T07:55:01.000Z</time>
      </trkpt>
      <trkpt lat="39.86586" lon="-75.182716">
        <ele>3.801637</ele>
        <time>2024-04-28T07:55:09.000Z</time>
      </trkpt>
      <trkpt lat="39.86586" lon="-75.182713">
        <ele>3.801636</ele>
        <time>2024-04-28T07:55:09.000Z</time>
      </trkpt>
      <trkpt lat="39.86524" lon="-75.183034">
        <ele>3.60925</ele>
        <time>2024-04-28T07:55:16.000Z</time>
      </trkpt>
      <trkpt lat="39.865247" lon="-75.183051">
        <ele>3.609256</ele>
        <time>2024-04-28T07:55:16.000Z</time>
      </trkpt>
      <trkpt lat="39.864979" lon="-75.182218">
        <ele>3.36978</ele>
        <time>2024-04-28T07:55:24.000Z</time>
      </trkpt>
      <trkpt lat="39.864719" lon="-75.181401">
        <ele>3.112219</ele>
        <time>2024-04-28T07:55:32.000Z</time>
      </trkpt>
      <trkpt lat="39.864445" lon="-75.180588">
        <ele>2.790725</ele>
        <time>2024-04-28T07:55:40.000Z</time>
      </trkpt>
      <trkpt lat="39.863816" lon="-75.180929">
        <ele>2.468194</ele>
        <time>2024-04-28T07:55:48.000Z</time>
      </trkpt>
      <trkpt lat="39.863187" lon="-75.181282">
        <ele>2.269412</ele>
        <time>2024-04-28T07:55:56.000Z</time>
      </trkpt>
      <trkpt lat="39.862468" lon="-75.181686">
        <ele>2.141266</ele>
        <time>2024-04-28T07:56:05.000Z</time>
      </trkpt>
      <trkpt lat="39.860787" lon="-75.182606">
        <ele>2.048309</ele>
        <time>2024-04-28T07:56:25.000Z</time>
      </trkpt>
      <trkpt lat="39.859532" lon="-75.183145">
        <ele>1.969659</ele>
        <time>2024-04-28T07:56:40.000Z</time>
      </trkpt>
      <trkpt lat="39.85817" lon="-75.183824">
        <ele>1.839827</ele>
        <time>2024-04-28T07:56:56.000Z</time>
      </trkpt>
      <trkpt lat="39.85765" lon="-75.184124">
        <ele>1.822123</ele>
        <time>2024-04-28T07:57:02.000Z</time>
      </trkpt>
      <trkpt lat="39.857245" lon="-75.184352">
        <ele>1.807662</ele>
        <time>2024-04-28T07:57:07.000Z</time>
      </trkpt>
      <trkpt lat="39.855981" lon="-75.185276">
        <ele>2.013244</ele>
        <time>2024-04-28T07:57:23.000Z</time>
      </trkpt>
      <trkpt lat="39.853073" lon="-75.186891">
        <ele>2.710863</ele>
        <time>2024-04-28T07:57:58.000Z</time>
      </trkpt>
      <trkpt lat="39.852432" lon="-75.187258">
        <ele>2.880019</ele>
        <time>2024-04-28T07:58:06.000Z</time>
      </trkpt>
      <trkpt lat="39.8516" lon="-75.187707">
        <ele>3.02991</ele>
        <time>2024-04-28T07:58:16.000Z</time>
      </trkpt>
      <trkpt lat="39.85014" lon="-75.188522">
        <ele>3.120685</ele>
        <time>2024-04-28T07:58:34.000Z</time>
      </trkpt>
      <trkpt lat="39.850537" lon="-75.189673">
        <ele>2.987185</ele>
        <time>2024-04-28T07:58:45.000Z</time>
      </trkpt>
      <trkpt lat="39.85064" lon="-75.19023">
        <ele>2.926924</ele>
        <time>2024-04-28T07:58:50.000Z</time>
      </trkpt>
      <trkpt lat="39.850835" lon="-75.192997">
        <ele>2.767705</ele>
        <time>2024-04-28T07:59:14.000Z</time>
      </trkpt>
      <trkpt lat="39.85094" lon="-75.194698">
        <ele>2.880812</ele>
        <time>2024-04-28T07:59:29.000Z</time>
      </trkpt>
      <trkpt lat="39.850973" lon="-75.194985">
        <ele>2.900041</ele>
        <time>2024-04-28T07:59:31.000Z</time>
      </trkpt>
      <trkpt lat="39.850973" lon="-75.195201">
        <ele>2.902554</ele>
        <time>2024-04-28T07:59:33.000Z</time>
      </trkpt>
      <trkpt lat="39.850982" lon="-75.195381">
        <ele>2.891083</ele>
        <time>2024-04-28T07:59:35.000Z</time>
      </trkpt>
      <trkpt lat="39.850969" lon="-75.195984">
        <ele>2.852536</ele>
        <time>2024-04-28T07:59:40.000Z</time>
      </trkpt>
      <trkpt lat="39.850388" lon="-75.197762">
        <ele>2.660059</ele>
        <time>2024-04-28T07:59:56.000Z</time>
      </trkpt>
      <trkpt lat="39.8503" lon="-75.198069">
        <ele>2.59364</ele>
        <time>2024-04-28T07:59:59.000Z</time>
      </trkpt>
      <trkpt lat="39.850339" lon="-75.1985">
        <ele>2.503811</ele>
        <time>2024-04-28T08:00:03.000Z</time>
      </trkpt>
      <trkpt lat="39.850445" lon="-75.198783">
        <ele>2.43761</ele>
        <time>2024-04-28T08:00:06.000Z</time>
      </trkpt>
      <trkpt lat="39.850566" lon="-75.198978">
        <ele>2.383096</ele>
        <time>2024-04-28T08:00:08.000Z</time>
      </trkpt>
      <trkpt lat="39.851342" lon="-75.199831">
        <ele>2.179876</ele>
        <time>2024-04-28T08:00:19.000Z</time>
      </trkpt>
      <trkpt lat="39.851773" lon="-75.200156">
        <ele>2.106953</ele>
        <time>2024-04-28T08:00:25.000Z</time>
      </trkpt>
      <trkpt lat="39.855365" lon="-75.202534">
        <ele>1.94684389228</ele>
        <time>2024-04-28T08:01:10.000Z</time>
      </trkpt>
      <trkpt lat="39.857677" lon="-75.204114">
        <ele>1.84309884621</ele>
        <time>2024-04-28T08:01:39.000Z</time>
      </trkpt>
      <trkpt lat="39.858403" lon="-75.204567">
        <ele>1.81111171824</ele>
        <time>2024-04-28T08:01:48.000Z</time>
      </trkpt>
    </trkseg>
  </trk>
</gpx>

<!--
Performance optimized by W3 Total Cache. Learn more: https://www.boldgrid.com/w3-total-cache/?utm_source=w3tc&utm_medium=footer_comment&utm_campaign=free_plugin

Page Caching using Disk: Enhanced{w3tc_pagecache_reject_reason} 

Served from: www.aquabike.world @ 2026-05-08 02:09:44 by W3 Total Cache
-->